This is the latest recevied weather packets stored in our database for station/object KF5JED-13. If no packets are shown the sender has not sent any weather packets the latest 1 day(s).
| Time | Temp. | Humidity | Pressure | Rain* | Wind** | Luminosity | Snow |
|---|---|---|---|---|---|---|---|
| 1778026541 | 15.56° C | 46% | 1008.4 hPa | 0 mm | 6.26 m/s, 59° | 128 W/m² | - |
| 1778026239 | 15.56° C | 45% | 1008.3 hPa | 0 mm | 8.49 m/s, 69° | 114 W/m² | - |
| 1778025936 | 15.56° C | 45% | 1008.7 hPa | 0 mm | 8.05 m/s, 72° | 106 W/m² | - |
| 1778025634 | 16.11° C | 45% | 1008.6 hPa | 0 mm | 5.81 m/s, 81° | 119 W/m² | - |
| 1778025331 | 16.11° C | 44% | 1008.4 hPa | 0 mm | 6.71 m/s, 66° | 119 W/m² | - |
| 1778025028 | 16.11° C | 45% | 1008.7 hPa | 0 mm | 4.92 m/s, 78° | 139 W/m² | - |
| 1778024725 | 16.67° C | 44% | 1008.3 hPa | 0 mm | 5.36 m/s, 69° | 166 W/m² | - |
| 1778024422 | 16.67° C | 44% | 1008.4 hPa | 0 mm | 3.13 m/s, 78° | 241 W/m² | - |
| 1778024119 | 16.67° C | 44% | 1008.6 hPa | 0 mm | 4.02 m/s, 50° | 219 W/m² | - |
| 1778023817 | 16.67° C | 44% | 1008.6 hPa | 0 mm | 4.47 m/s, 95° | 262 W/m² | - |
| 1778023514 | 17.22° C | 44% | 1008.7 hPa | 0 mm | 3.58 m/s, 81° | 228 W/m² | - |
| 1778023212 | 16.67° C | 44% | 1008.7 hPa | 0 mm | 4.47 m/s, 95° | 239 W/m² | - |
| 1778022909 | 16.67° C | 44% | 1008.8 hPa | 0 mm | 4.92 m/s, 53° | 211 W/m² | - |
| 1778022608 | 16.67° C | 44% | 1008.7 hPa | 0 mm | 3.13 m/s, 72° | 202 W/m² | - |
| 1778022304 | 16.67° C | 44% | 1008.8 hPa | 0 mm | 5.81 m/s, 55° | 192 W/m² | - |
| 1778022000 | 16.67° C | 44% | 1008.8 hPa | 0 mm | 5.36 m/s, 92° | 238 W/m² | - |
| 1778021697 | 16.67° C | 44% | 1009 hPa | 0 mm | 5.81 m/s, 87° | 231 W/m² | - |
| 1778021394 | 16.67° C | 44% | 1008.8 hPa | 0 mm | 2.68 m/s, 86° | 245 W/m² | - |
| 1778021090 | 16.67° C | 44% | 1009 hPa | 0 mm | 3.58 m/s, 76° | 227 W/m² | - |
| 1778020788 | 16.67° C | 44% | 1008.9 hPa | 0 mm | 4.92 m/s, 62° | 242 W/m² | - |
| 1778020485 | 16.67° C | 44% | 1008.9 hPa | 0 mm | 5.81 m/s, 65° | 249 W/m² | - |
| 1778020181 | 17.22° C | 43% | 1009.1 hPa | 0 mm | 5.36 m/s, 48° | 239 W/m² | - |
| 1778019877 | 17.22° C | 43% | 1008.9 hPa | 0 mm | 4.92 m/s, 59° | 242 W/m² | - |
| 1778019573 | 17.22° C | 42% | 1009.1 hPa | 0 mm | 6.26 m/s, 75° | 336 W/m² | - |
| 1778019271 | 17.22° C | 43% | 1008.9 hPa | 0 mm | 7.15 m/s, 57° | 293 W/m² | - |
* Rain latest hour (hover to see other rain measurements)
** Current wind speed in m/s (hover to see current wind gust speed)